createdAt,value
2023-02-16T00:00:35.340Z,2.74
2023-02-16T00:03:23.229Z,2.73
2023-02-16T00:05:51.390Z,2.72
2023-02-16T00:08:19.329Z,2.71
2023-02-16T00:11:07.320Z,2.71
2023-02-16T00:13:44.409Z,2.71
2023-02-16T00:16:18.361Z,2.70
2023-02-16T00:18:47.263Z,2.68
2023-02-16T00:21:16.057Z,2.67
2023-02-16T00:23:44.056Z,2.65
2023-02-16T00:26:24.162Z,2.64
2023-02-16T00:28:54.837Z,2.64
2023-02-16T00:31:27.454Z,2.64
2023-02-16T00:33:56.298Z,2.63
2023-02-16T00:36:25.060Z,2.62
2023-02-16T00:38:52.969Z,2.62
2023-02-16T00:41:43.184Z,2.61
2023-02-16T00:44:36.143Z,2.60
2023-02-16T00:47:17.281Z,2.59
2023-02-16T00:49:45.503Z,2.57
2023-02-16T00:52:22.443Z,2.56
2023-02-16T00:54:50.314Z,2.55
2023-02-16T00:57:20.057Z,2.56
2023-02-16T00:59:51.551Z,2.57
2023-02-16T01:02:19.429Z,2.57
2023-02-16T01:04:47.434Z,2.58
2023-02-16T01:07:37.479Z,2.56
2023-02-16T01:10:25.440Z,2.55
2023-02-16T01:12:53.322Z,2.54
2023-02-16T01:15:25.875Z,2.52
2023-02-16T01:17:53.755Z,2.53
2023-02-16T01:20:27.136Z,2.52
2023-02-16T01:22:55.004Z,2.51
2023-02-16T01:25:22.992Z,2.51
2023-02-16T01:27:50.891Z,2.51
2023-02-16T01:30:24.237Z,2.51
2023-02-16T01:32:52.430Z,2.50
2023-02-16T01:35:33.312Z,2.48
2023-02-16T01:38:01.360Z,2.46
2023-02-16T01:40:35.317Z,2.45
2023-02-16T01:43:12.383Z,2.44
2023-02-16T01:45:44.426Z,2.44
2023-02-16T01:48:24.931Z,2.45
2023-02-16T01:51:02.940Z,2.45
2023-02-16T01:53:37.492Z,2.44
2023-02-16T01:56:16.131Z,2.44
2023-02-16T01:58:52.965Z,2.44
2023-02-16T02:01:47.296Z,2.43
2023-02-16T02:04:48.506Z,2.44
2023-02-16T02:07:28.806Z,2.45
2023-02-16T02:10:08.369Z,2.47
2023-02-16T02:12:49.830Z,2.47
2023-02-16T02:15:22.692Z,2.51
2023-02-16T02:17:50.761Z,2.55
2023-02-16T02:20:48.032Z,2.57
2023-02-16T02:23:32.608Z,2.58
2023-02-16T02:26:28.508Z,2.59
2023-02-16T02:29:50.960Z,2.60
2023-02-16T02:32:45.955Z,2.59
2023-02-16T02:35:19.965Z,2.59
2023-02-16T02:37:57.005Z,2.58
2023-02-16T02:40:56.387Z,2.57
2023-02-16T02:43:27.998Z,2.55
2023-02-16T02:46:09.498Z,2.54
2023-02-16T02:48:37.568Z,2.53
2023-02-16T02:51:27.485Z,2.54
2023-02-16T02:54:52.491Z,2.54
2023-02-16T02:57:54.886Z,2.53
2023-02-16T03:00:41.208Z,2.53
2023-02-16T03:03:27.602Z,2.54
2023-02-16T03:06:00.950Z,2.56
2023-02-16T03:08:33.623Z,2.58
2023-02-16T03:11:41.272Z,2.61
2023-02-16T03:14:16.390Z,2.63
2023-02-16T03:16:49.720Z,2.64
2023-02-16T03:19:37.278Z,2.65
2023-02-16T03:22:24.121Z,2.67
2023-02-16T03:25:10.552Z,2.69
2023-02-16T03:28:00.088Z,2.70
2023-02-16T03:30:29.591Z,2.69
2023-02-16T03:32:57.532Z,2.68
2023-02-16T03:35:26.212Z,2.67
2023-02-16T03:37:54.128Z,2.67
2023-02-16T03:40:28.496Z,2.68
2023-02-16T03:43:02.772Z,2.66
2023-02-16T03:45:32.500Z,2.66
2023-02-16T03:48:00.678Z,2.64
2023-02-16T03:50:28.659Z,2.62
2023-02-16T03:53:07.115Z,2.62
2023-02-16T03:55:36.643Z,2.59
2023-02-16T03:58:06.522Z,2.56
2023-02-16T04:00:35.732Z,2.55
2023-02-16T04:03:05.174Z,2.53
2023-02-16T04:05:33.755Z,2.51
2023-02-16T04:08:01.617Z,2.49
2023-02-16T04:10:29.532Z,2.46
2023-02-16T04:12:57.427Z,2.45
2023-02-16T04:15:27.627Z,2.44
2023-02-16T04:17:55.610Z,2.43
2023-02-16T04:20:27.357Z,2.42
2023-02-16T04:22:56.006Z,2.40
2023-02-16T04:25:24.003Z,2.39
2023-02-16T04:27:52.293Z,2.38
2023-02-16T04:30:26.753Z,2.37
2023-02-16T04:32:55.539Z,2.35
2023-02-16T04:35:23.560Z,2.34
2023-02-16T04:37:51.445Z,2.32
2023-02-16T04:40:19.522Z,2.31
2023-02-16T04:42:47.567Z,2.30
2023-02-16T04:45:15.505Z,2.30
2023-02-16T04:47:43.420Z,2.31
2023-02-16T04:50:11.955Z,2.31
2023-02-16T04:52:40.528Z,2.31
2023-02-16T04:55:10.758Z,2.32
2023-02-16T04:57:39.673Z,2.31
2023-02-16T05:00:09.464Z,2.30
2023-02-16T05:02:37.682Z,2.29
2023-02-16T05:05:05.933Z,2.28
2023-02-16T05:07:33.863Z,2.28
2023-02-16T05:10:01.727Z,2.27
2023-02-16T05:12:47.992Z,2.27
2023-02-16T05:15:16.082Z,2.26
2023-02-16T05:17:43.996Z,2.26
2023-02-16T05:20:12.904Z,2.25
2023-02-16T05:22:40.882Z,2.25
2023-02-16T05:25:08.903Z,2.23
2023-02-16T05:27:37.177Z,2.23
2023-02-16T05:30:05.850Z,2.21
2023-02-16T05:32:33.831Z,2.19
2023-02-16T05:35:01.805Z,2.18
2023-02-16T05:37:29.731Z,2.15
2023-02-16T05:39:57.625Z,2.14
2023-02-16T05:42:25.472Z,2.13
2023-02-16T05:44:53.284Z,2.13
2023-02-16T05:47:21.117Z,2.12
2023-02-16T05:49:48.979Z,2.11
2023-02-16T05:52:16.871Z,2.10
2023-02-16T05:54:44.818Z,2.08
2023-02-16T05:57:12.729Z,2.07
2023-02-16T05:59:40.658Z,2.05
2023-02-16T06:02:09.937Z,2.02
2023-02-16T06:04:37.839Z,1.98
2023-02-16T06:07:05.729Z,1.97
2023-02-16T06:09:33.832Z,1.96
2023-02-16T06:12:01.748Z,1.95
2023-02-16T06:14:29.664Z,1.93
2023-02-16T06:16:58.821Z,1.93
2023-02-16T06:19:26.878Z,1.92
2023-02-16T06:21:54.886Z,1.93
2023-02-16T06:24:22.724Z,1.95
2023-02-16T06:26:50.882Z,1.97
2023-02-16T06:29:18.748Z,2.02
2023-02-16T06:31:46.729Z,2.07
2023-02-16T06:34:14.812Z,2.13
2023-02-16T06:36:42.911Z,2.19
2023-02-16T06:39:10.876Z,2.23
2023-02-16T06:41:40.556Z,2.26
2023-02-16T06:44:15.235Z,2.30
2023-02-16T06:46:44.828Z,2.34
2023-02-16T06:49:20.907Z,2.38
2023-02-16T06:51:50.016Z,2.44
2023-02-16T06:54:18.099Z,2.51
2023-02-16T06:56:45.949Z,2.57
2023-02-16T06:59:14.261Z,2.62
2023-02-16T07:01:44.248Z,2.67
2023-02-16T07:04:13.796Z,2.72
2023-02-16T07:06:43.041Z,2.78
2023-02-16T07:09:12.738Z,2.85
2023-02-16T07:11:40.917Z,2.93
2023-02-16T07:14:08.872Z,3.00
2023-02-16T07:16:36.850Z,3.09
2023-02-16T07:19:05.645Z,3.17
2023-02-16T07:21:34.090Z,3.26
2023-02-16T07:24:02.057Z,3.34
2023-02-16T07:26:30.083Z,3.44
2023-02-16T07:28:58.477Z,3.52
2023-02-16T07:31:26.568Z,3.60
2023-02-16T07:33:54.568Z,3.69
2023-02-16T07:36:22.858Z,3.79
2023-02-16T07:38:51.757Z,3.89
2023-02-16T07:41:20.974Z,3.99
2023-02-16T07:43:48.857Z,4.07
2023-02-16T07:46:16.886Z,4.16
2023-02-16T07:48:48.790Z,4.26
2023-02-16T07:51:27.655Z,4.33
2023-02-16T07:53:57.002Z,4.41
2023-02-16T07:56:28.427Z,4.47
2023-02-16T07:58:58.562Z,4.56
2023-02-16T08:01:27.706Z,4.68
2023-02-16T08:03:56.299Z,4.79
2023-02-16T08:06:24.523Z,4.88
2023-02-16T08:08:52.470Z,4.99
2023-02-16T08:11:23.341Z,5.07
2023-02-16T08:13:52.273Z,5.15
2023-02-16T08:16:24.074Z,5.23
2023-02-16T08:18:56.252Z,5.31
2023-02-16T08:21:27.756Z,5.38
2023-02-16T08:23:58.407Z,5.42
2023-02-16T08:26:28.945Z,5.45
2023-02-16T08:28:58.445Z,5.54
2023-02-16T08:31:30.050Z,5.60
2023-02-16T08:34:00.745Z,5.64
2023-02-16T08:36:34.960Z,5.68
2023-02-16T08:39:06.183Z,5.72
2023-02-16T08:41:36.630Z,5.78
2023-02-16T08:44:08.699Z,5.87
2023-02-16T08:46:39.908Z,5.91
2023-02-16T08:49:09.601Z,5.94
2023-02-16T08:51:42.349Z,5.99
2023-02-16T08:54:16.806Z,6.05
2023-02-16T08:56:47.981Z,6.13
2023-02-16T08:59:18.363Z,6.20
2023-02-16T09:01:46.702Z,6.25
2023-02-16T09:04:15.847Z,6.31
2023-02-16T09:06:45.303Z,6.38
2023-02-16T09:09:13.327Z,6.43
2023-02-16T09:11:41.273Z,6.48
2023-02-16T09:14:10.485Z,6.49
2023-02-16T09:16:43.954Z,6.53
2023-02-16T09:19:17.539Z,6.53
2023-02-16T09:21:47.025Z,6.56
2023-02-16T09:24:16.340Z,6.63
2023-02-16T09:26:44.682Z,6.67
2023-02-16T09:29:13.992Z,6.71
2023-02-16T09:31:44.440Z,6.74
2023-02-16T09:34:21.308Z,6.79
2023-02-16T09:36:50.172Z,6.88
2023-02-16T09:39:19.243Z,6.98
2023-02-16T09:42:05.210Z,7.09
2023-02-16T09:44:33.094Z,7.18
2023-02-16T09:47:06.357Z,7.25
2023-02-16T09:49:46.205Z,7.32
2023-02-16T09:52:27.157Z,7.42
2023-02-16T09:54:59.567Z,7.52
2023-02-16T09:57:38.373Z,7.59
2023-02-16T10:00:23.552Z,7.61
2023-02-16T10:03:18.450Z,7.60
2023-02-16T10:06:12.056Z,7.66
2023-02-16T10:09:00.451Z,7.67
2023-02-16T10:11:38.449Z,7.71
2023-02-16T10:14:41.896Z,7.75
2023-02-16T10:17:34.124Z,7.82
2023-02-16T10:20:13.525Z,7.85
2023-02-16T10:22:55.192Z,7.88
2023-02-16T10:25:42.035Z,7.92
2023-02-16T10:28:18.235Z,7.92
2023-02-16T10:31:03.288Z,7.92
2023-02-16T10:33:53.553Z,7.94
2023-02-16T10:36:39.427Z,7.99
2023-02-16T10:39:26.540Z,8.03
2023-02-16T10:56:36.461Z,8.60
2023-02-16T10:59:15.365Z,8.67
2023-02-16T11:01:46.417Z,8.75
2023-02-16T11:04:42.230Z,8.79
2023-02-16T11:07:16.888Z,8.81
2023-02-16T11:09:48.393Z,8.83
2023-02-16T11:12:34.119Z,8.90
2023-02-16T11:15:14.359Z,9.00
2023-02-16T11:17:56.306Z,9.13
2023-02-16T11:20:31.122Z,9.22
2023-02-16T11:23:33.010Z,9.29
2023-02-16T11:26:10.145Z,9.34
2023-02-16T11:28:44.069Z,9.43
2023-02-16T11:31:18.744Z,9.55
2023-02-16T11:34:24.251Z,9.62
2023-02-16T11:37:00.875Z,9.65
2023-02-16T11:39:37.277Z,9.69
2023-02-16T11:42:19.755Z,9.70
2023-02-16T11:44:56.335Z,9.67
2023-02-16T11:47:32.003Z,9.69
2023-02-16T11:50:23.430Z,9.69
2023-02-16T11:52:55.031Z,9.70
2023-02-16T11:55:34.578Z,9.72
2023-02-16T11:58:25.266Z,9.80
2023-02-16T12:01:24.768Z,9.91
2023-02-16T12:04:04.674Z,9.99
2023-02-16T12:06:44.742Z,10.06
2023-02-16T12:09:21.833Z,10.15
2023-02-16T12:12:03.270Z,10.23
2023-02-16T12:14:44.237Z,10.28
2023-02-16T12:17:28.121Z,10.34
2023-02-16T12:20:29.465Z,10.38
2023-02-16T12:23:20.655Z,10.36
2023-02-16T12:26:06.853Z,10.33
2023-02-16T12:28:49.047Z,10.30
2023-02-16T12:31:30.865Z,10.29
2023-02-16T12:34:20.359Z,10.32
2023-02-16T12:37:05.164Z,10.32
2023-02-16T12:40:10.134Z,10.33
2023-02-16T12:43:09.754Z,10.32
2023-02-16T12:45:43.399Z,10.28
2023-02-16T12:48:11.531Z,10.22
2023-02-16T12:50:44.344Z,10.17
2023-02-16T12:53:27.870Z,10.17
2023-02-16T12:56:01.350Z,10.18
2023-02-16T12:58:35.380Z,10.17
2023-02-16T13:01:25.873Z,10.18
2023-02-16T13:04:04.942Z,10.14
2023-02-16T13:06:42.663Z,10.05
2023-02-16T13:09:40.224Z,9.98
2023-02-16T13:12:31.691Z,9.88
2023-02-16T13:15:13.379Z,9.75
2023-02-16T13:17:52.882Z,9.66
2023-02-16T13:20:23.190Z,9.58
2023-02-16T13:23:03.059Z,9.50
2023-02-16T13:25:43.323Z,9.42
2023-02-16T13:28:49.806Z,9.44
2023-02-16T13:31:40.723Z,9.49
2023-02-16T13:34:50.579Z,9.57
2023-02-16T13:37:58.797Z,9.62
2023-02-16T13:40:45.726Z,9.68
2023-02-16T13:43:17.012Z,9.74
2023-02-16T13:45:47.608Z,9.80
2023-02-16T13:48:28.843Z,9.86
2023-02-16T13:51:03.887Z,9.86
2023-02-16T13:53:41.698Z,9.86
2023-02-16T13:56:28.755Z,9.89
2023-02-16T13:58:59.325Z,9.93
2023-02-16T14:01:37.877Z,9.95
2023-02-16T14:04:31.128Z,9.96
2023-02-16T14:07:07.257Z,9.99
2023-02-16T14:09:38.345Z,10.00
2023-02-16T14:12:11.638Z,10.00
2023-02-16T14:14:42.569Z,10.02
2023-02-16T14:17:19.954Z,10.02
2023-02-16T14:19:54.328Z,10.02
2023-02-16T14:22:50.264Z,9.99
2023-02-16T14:25:24.376Z,9.98
2023-02-16T14:28:00.401Z,9.97
2023-02-16T14:30:47.378Z,9.92
2023-02-16T14:33:17.949Z,9.86
2023-02-16T14:36:08.056Z,9.78
2023-02-16T14:38:51.214Z,9.65
2023-02-16T14:41:31.075Z,9.48
2023-02-16T14:44:23.411Z,9.37
2023-02-16T14:47:03.429Z,9.29
2023-02-16T14:50:09.263Z,9.22
2023-02-16T14:52:40.290Z,9.13
2023-02-16T14:55:44.418Z,8.98
2023-02-16T14:58:31.172Z,8.85
2023-02-16T15:01:13.500Z,8.76
2023-02-16T15:03:48.236Z,8.68
2023-02-16T15:06:31.206Z,8.60
2023-02-16T15:09:02.775Z,8.47
2023-02-16T15:12:11.297Z,8.34
2023-02-16T15:14:48.450Z,8.22
2023-02-16T15:17:35.551Z,8.10
2023-02-16T15:20:31.826Z,8.02
2023-02-16T15:23:03.763Z,7.91
2023-02-16T15:25:34.514Z,7.80
2023-02-16T15:28:06.961Z,7.70
2023-02-16T15:30:39.253Z,7.63
2023-02-16T15:33:25.420Z,7.57
2023-02-16T15:35:56.976Z,7.52
2023-02-16T15:38:28.045Z,7.47
2023-02-16T15:40:59.111Z,7.40
2023-02-16T15:43:35.769Z,7.33
2023-02-16T15:46:08.833Z,7.25
2023-02-16T15:48:38.270Z,7.16
2023-02-16T15:51:18.460Z,7.08
2023-02-16T15:53:56.034Z,7.00
2023-02-16T15:56:33.080Z,6.91
2023-02-16T15:59:04.968Z,6.81
2023-02-16T16:01:35.457Z,6.70
2023-02-16T16:04:19.541Z,6.60
2023-02-16T16:06:48.324Z,6.50
2023-02-16T16:09:26.943Z,6.41
2023-02-16T16:12:04.098Z,6.32
2023-02-16T16:14:38.468Z,6.21
2023-02-16T16:17:13.907Z,6.11
2023-02-16T16:19:42.301Z,6.03
2023-02-16T16:22:38.508Z,5.94
2023-02-16T16:25:28.544Z,5.83
2023-02-16T16:27:57.128Z,5.74
2023-02-16T16:30:29.094Z,5.66
2023-02-16T16:33:06.398Z,5.58
2023-02-16T16:35:47.818Z,5.50
2023-02-16T16:38:31.756Z,5.43
2023-02-16T16:41:03.995Z,5.37
2023-02-16T16:43:36.933Z,5.31
2023-02-16T16:46:23.383Z,5.25
2023-02-16T16:48:56.525Z,5.18
2023-02-16T16:51:27.582Z,5.10
2023-02-16T16:54:01.160Z,5.03
2023-02-16T16:56:35.250Z,4.97
2023-02-16T16:59:04.579Z,4.90
2023-02-16T17:01:33.746Z,4.82
2023-02-16T17:04:02.029Z,4.76
2023-02-16T17:06:30.229Z,4.71
2023-02-16T17:08:58.138Z,4.67
2023-02-16T17:11:30.789Z,4.63
2023-02-16T17:14:09.767Z,4.57
2023-02-16T17:16:42.111Z,4.49
2023-02-16T17:19:16.906Z,4.44
2023-02-16T17:21:46.115Z,4.39
2023-02-16T17:24:14.716Z,4.36
2023-02-16T17:26:42.802Z,4.32
2023-02-16T17:29:10.822Z,4.27
2023-02-16T17:31:38.861Z,4.23
2023-02-16T17:34:06.949Z,4.19
2023-02-16T17:36:37.009Z,4.16
2023-02-16T17:39:05.249Z,4.12
2023-02-16T17:41:33.173Z,4.09
2023-02-16T17:44:01.253Z,4.07
2023-02-16T17:46:31.319Z,4.07
2023-02-16T17:48:59.516Z,4.05
2023-02-16T17:51:27.634Z,4.03
2023-02-16T17:53:56.216Z,4.02
2023-02-16T17:56:25.500Z,4.00
2023-02-16T17:58:53.719Z,3.99
2023-02-16T18:01:22.225Z,3.97
2023-02-16T18:03:50.827Z,3.96
2023-02-16T18:06:21.740Z,3.94
2023-02-16T18:08:49.711Z,3.92
2023-02-16T18:11:17.935Z,3.91
2023-02-16T18:13:46.284Z,3.89
2023-02-16T18:16:18.938Z,3.87
2023-02-16T18:18:47.575Z,3.84
2023-02-16T18:21:15.573Z,3.82
2023-02-16T18:23:43.616Z,3.81
2023-02-16T18:26:15.518Z,3.81
2023-02-16T18:28:44.308Z,3.80
2023-02-16T18:31:14.502Z,3.79
2023-02-16T18:33:42.506Z,3.78
2023-02-16T18:36:10.369Z,3.76
2023-02-16T18:38:38.805Z,3.75
2023-02-16T18:41:08.142Z,3.75
2023-02-16T18:43:37.246Z,3.76
2023-02-16T18:46:07.354Z,3.75
2023-02-16T18:48:36.770Z,3.75
2023-02-16T18:51:06.872Z,3.76
2023-02-16T18:53:37.683Z,3.76
2023-02-16T18:56:07.383Z,3.78
2023-02-16T18:58:36.200Z,3.79
2023-02-16T19:01:26.774Z,3.83
2023-02-16T19:03:55.345Z,3.85
2023-02-16T19:06:23.527Z,3.87
2023-02-16T19:08:51.949Z,3.91
2023-02-16T19:11:21.437Z,3.95
2023-02-16T19:13:49.541Z,3.99
2023-02-16T19:16:17.924Z,4.01
2023-02-16T19:18:46.141Z,4.03
2023-02-16T19:21:14.625Z,4.06
2023-02-16T19:23:42.522Z,4.09
2023-02-16T19:26:12.793Z,4.12
2023-02-16T19:28:40.674Z,4.14
2023-02-16T19:31:16.996Z,4.18
2023-02-16T19:33:45.494Z,4.21
2023-02-16T19:36:14.623Z,4.24
2023-02-16T19:38:43.420Z,4.27
2023-02-16T19:41:15.534Z,4.30
2023-02-16T19:43:44.157Z,4.33
2023-02-16T19:46:13.134Z,4.37
2023-02-16T19:48:41.637Z,4.40
2023-02-16T19:51:10.493Z,4.44
2023-02-16T19:53:39.661Z,4.48
2023-02-16T19:56:10.011Z,4.53
2023-02-16T19:58:38.041Z,4.58
2023-02-16T20:01:12.164Z,4.61
2023-02-16T20:03:40.599Z,4.61
2023-02-16T20:06:13.677Z,4.58
2023-02-16T20:08:41.988Z,4.56
2023-02-16T20:11:09.860Z,4.56
2023-02-16T20:13:38.169Z,4.56
2023-02-16T20:16:08.808Z,4.57
2023-02-16T20:18:39.041Z,4.58
2023-02-16T20:21:12.936Z,4.59
2023-02-16T20:23:41.876Z,4.61
2023-02-16T20:26:18.877Z,4.62
2023-02-16T20:28:48.158Z,4.62
2023-02-16T20:31:19.578Z,4.65
2023-02-16T20:33:48.594Z,4.68
2023-02-16T20:36:16.924Z,4.71
2023-02-16T20:38:45.093Z,4.74
2023-02-16T20:41:13.094Z,4.77
2023-02-16T20:43:43.894Z,4.79
2023-02-16T20:46:12.938Z,4.81
2023-02-16T20:48:40.912Z,4.83
2023-02-16T20:51:10.883Z,4.88
2023-02-16T20:53:39.852Z,4.91
2023-02-16T20:56:14.678Z,4.93
2023-02-16T20:58:44.738Z,4.97
2023-02-16T21:01:25.567Z,5.00
2023-02-16T21:03:55.582Z,5.02
2023-02-16T21:06:24.047Z,5.04
2023-02-16T21:08:52.448Z,5.07
2023-02-16T21:11:20.462Z,5.09
2023-02-16T21:13:49.036Z,5.12
2023-02-16T21:16:17.641Z,5.15
2023-02-16T21:18:45.772Z,5.20
2023-02-16T21:21:15.809Z,5.24
2023-02-16T21:23:50.222Z,5.27
2023-02-16T21:26:19.840Z,5.32
2023-02-16T21:28:47.975Z,5.37
2023-02-16T21:31:20.144Z,5.41
2023-02-16T21:33:49.031Z,5.45
2023-02-16T21:36:22.818Z,5.50
2023-02-16T21:38:50.788Z,5.53
2023-02-16T21:41:24.644Z,5.56
2023-02-16T21:43:53.975Z,5.58
2023-02-16T21:46:22.294Z,5.59
2023-02-16T21:48:50.471Z,5.61
2023-02-16T21:51:26.536Z,5.63
2023-02-16T21:53:54.928Z,5.64
2023-02-16T21:56:29.306Z,5.64
2023-02-16T21:58:58.101Z,5.64
2023-02-16T22:01:28.916Z,5.63
2023-02-16T22:03:59.328Z,5.61
2023-02-16T22:06:32.235Z,5.60
2023-02-16T22:09:01.751Z,5.59
2023-02-16T22:11:29.892Z,5.59
2023-02-16T22:13:59.958Z,5.59
2023-02-16T22:16:30.596Z,5.59
2023-02-16T22:19:07.577Z,5.59
2023-02-16T22:21:37.646Z,5.58
2023-02-16T22:24:06.726Z,5.57
2023-02-16T22:26:35.860Z,5.56
2023-02-16T22:29:06.099Z,5.56
2023-02-16T22:31:34.390Z,5.56
2023-02-16T22:34:05.026Z,5.55
2023-02-16T22:36:33.946Z,5.54
2023-02-16T22:39:01.792Z,5.55
2023-02-16T22:41:30.113Z,5.55
2023-02-16T22:44:01.452Z,5.55
2023-02-16T22:46:30.287Z,5.56
2023-02-16T22:48:59.075Z,5.57
2023-02-16T22:51:29.285Z,5.59
2023-02-16T22:53:58.744Z,5.62
2023-02-16T22:56:27.060Z,5.63
2023-02-16T22:58:57.480Z,5.62
2023-02-16T23:01:27.874Z,5.62
2023-02-16T23:03:57.488Z,5.62
2023-02-16T23:06:36.963Z,5.61
2023-02-16T23:09:08.345Z,5.61
2023-02-16T23:11:36.468Z,5.60
2023-02-16T23:14:05.084Z,5.60
2023-02-16T23:16:33.217Z,5.61
2023-02-16T23:19:01.106Z,5.62
2023-02-16T23:21:31.380Z,5.62
2023-02-16T23:23:59.965Z,5.63
2023-02-16T23:26:29.767Z,5.63
2023-02-16T23:29:00.533Z,5.65
2023-02-16T23:31:33.072Z,5.65
2023-02-16T23:34:02.633Z,5.67
2023-02-16T23:36:32.460Z,5.69
2023-02-16T23:39:09.388Z,5.70
2023-02-16T23:41:37.565Z,5.72
2023-02-16T23:44:05.708Z,5.75
2023-02-16T23:46:34.287Z,5.77
2023-02-16T23:49:02.110Z,5.79
2023-02-16T23:51:30.149Z,5.82
2023-02-16T23:53:58.053Z,5.85
2023-02-16T23:56:27.954Z,5.86
2023-02-16T23:59:00.541Z,5.88
